Dades meteomassalio
Diari Summary for Febrer 19, 2018 Units:  Metric    English   Both
« Previous Day
Next Day »
Diari Semanal Mensual Anual Personalitzat
  Maxima: Minima: Mijana:
Temperatura: -17.8 °C -13.8 °C -11.8 °C
Rosada: -17.8 °C -15.7 °C -14.4 °C
Humitat: Humidity % 64 % 73 %
Velocitat del vent: 0 km/h 3.1 km/h 31.1 km/h
Racha vent: 0 km/h - -
Vent:- - NW
Pressio: 0 hPa 34462.7 hPa -
Pluja: 0 mm    
Historical Graphs
 
 
Tabular Data for Febrer 19, 2018
Time Temperature Dew Point Pressure Wind Wind Speed Wind Gust Humidity Rainfall Rate (Hourly) solar Conditions
-17.8 °C -17.8 °C 0 hPa Calm     Humidity % 0 mm SolarRadiationWatts/m^2 W/m2 Conditions
00:01 -13.2 °C -15.2 °C 34625.2 hPa NW 26.9 km/h 26.9 km/h 77 % 0 mm 0.0 W/m2 CLR
00:06 -13.2 °C -15.2 °C 34625.2 hPa NW 29.8 km/h 29.8 km/h 77 % 0 mm 0.0 W/m2 CLR
00:11 -13.2 °C -15.4 °C 34625.2 hPa WNW 32.8 km/h 32.8 km/h 76 % 0 mm 0.0 W/m2 CLR
00:16 -13.2 °C -15.2 °C 34625.2 hPa NW 26.9 km/h 26.9 km/h 77 % 0 mm 0.0 W/m2 CLR
00:21 -12.8 °C -14.9 °C 34625.2 hPa NW 29.8 km/h 29.8 km/h 77 % 0 mm 0.0 W/m2 CLR
00:26 -12.8 °C -14.9 °C 34625.2 hPa WNW 20.9 km/h 20.9 km/h 77 % 0 mm 0.0 W/m2 CLR
00:31 -13.2 °C -15.2 °C 34625.2 hPa NW 32.8 km/h 32.8 km/h 77 % 0 mm 0.0 W/m2 CLR
00:36 -13.2 °C -15.4 °C 34625.2 hPa WNW 29.8 km/h 29.8 km/h 76 % 0 mm 0.0 W/m2 CLR
00:41 -13.2 °C -15.4 °C 34625.2 hPa NW 29.8 km/h 29.8 km/h 76 % 0 mm 0.0 W/m2 CLR
00:46 -13.2 °C -15.4 °C 34625.2 hPa WNW 33.6 km/h 33.6 km/h 76 % 0 mm 0.0 W/m2 CLR
00:51 -12.8 °C -15.1 °C 34611.7 hPa NW 29.8 km/h 29.8 km/h 76 % 0 mm 0.0 W/m2 CLR
00:56 -13.2 °C -15.4 °C 34611.7 hPa NW 31.1 km/h 31.1 km/h 76 % 0 mm 0.0 W/m2 CLR
01:01 -13.2 °C -15.4 °C 34611.7 hPa WNW 29.8 km/h 29.8 km/h 76 % 0 mm 0.0 W/m2 CLR
01:06 -13.2 °C -15.4 °C 34611.7 hPa NW 29.8 km/h 29.8 km/h 76 % 0 mm 0.0 W/m2 CLR
01:11 -13.2 °C -15.4 °C 34611.7 hPa West 32.8 km/h 32.8 km/h 76 % 0 mm 0.0 W/m2 CLR
01:16 -13.2 °C -15.4 °C 34611.7 hPa NW 29.8 km/h 29.8 km/h 76 % 0 mm 0.0 W/m2 CLR
01:21 -12.8 °C -15.1 °C 34611.7 hPa NW 25.9 km/h 25.9 km/h 76 % 0 mm 0.0 W/m2 CLR
01:26 -12.8 °C -15.1 °C 34611.7 hPa WNW 31.1 km/h 31.1 km/h 76 % 0 mm 0.0 W/m2 CLR
01:31 -12.8 °C -15.1 °C 34611.7 hPa NW 29.8 km/h 29.8 km/h 76 % 0 mm 0.0 W/m2 CLR
01:36 -12.8 °C -15.1 °C 34611.7 hPa NW 28.5 km/h 28.5 km/h 76 % 0 mm 0.0 W/m2 CLR
01:41 -12.8 °C -15.1 °C 34611.7 hPa NW 29.8 km/h 29.8 km/h 76 % 0 mm 0.0 W/m2 CLR
01:46 -12.8 °C -15.1 °C 34601.5 hPa WNW 26.9 km/h 26.9 km/h 76 % 0 mm 0.0 W/m2 CLR
01:51 -12.8 °C -15.2 °C 34601.5 hPa WNW 29.8 km/h 29.8 km/h 75 % 0 mm 0.0 W/m2 CLR
01:56 -12.8 °C -15.1 °C 34601.5 hPa NW 29.8 km/h 29.8 km/h 76 % 0 mm 0.0 W/m2 CLR
02:01 -12.8 °C -15.1 °C 34601.5 hPa NW 32.8 km/h 32.8 km/h 76 % 0 mm 0.0 W/m2 CLR
02:06 -12.8 °C -15.1 °C 34601.5 hPa NW 29.8 km/h 29.8 km/h 76 % 0 mm 0.0 W/m2 CLR
02:11 -12.8 °C -15.1 °C 34591.4 hPa NW 29.8 km/h 29.8 km/h 76 % 0 mm 0.0 W/m2 CLR
02:16 -12.8 °C -15.1 °C 34591.4 hPa NW 35.7 km/h 35.7 km/h 76 % 0 mm 0.0 W/m2 CLR
02:21 -12.8 °C -15.1 °C 34591.4 hPa NW 35.7 km/h 35.7 km/h 76 % 0 mm 0.0 W/m2 CLR
02:26 -12.8 °C -15.1 °C 34591.4 hPa NNW 38.8 km/h 38.8 km/h 76 % 0 mm 0.0 W/m2 CLR
02:31 -12.8 °C -15.1 °C 34591.4 hPa WNW 33.6 km/h 33.6 km/h 76 % 0 mm 0.0 W/m2 CLR
02:37 -12.8 °C -15.1 °C 34591.4 hPa NW 32.8 km/h 32.8 km/h 76 % 0 mm 0.0 W/m2 CLR
02:42 -12.8 °C -15.1 °C 34591.4 hPa NW 29.8 km/h 29.8 km/h 76 % 0 mm 0.0 W/m2 CLR
02:47 -12.8 °C -15.1 °C 34591.4 hPa NNW 26.9 km/h 26.9 km/h 76 % 0 mm 0.0 W/m2 CLR
02:52 -12.8 °C -14.9 °C 34591.4 hPa NW 29.8 km/h 29.8 km/h 77 % 0 mm 0.0 W/m2 CLR
02:57 -12.8 °C -14.9 °C 34591.4 hPa NW 29.8 km/h 29.8 km/h 77 % 0 mm 0.0 W/m2 CLR
03:02 -12.8 °C -14.9 °C 34591.4 hPa NW 35.7 km/h 35.7 km/h 77 % 0 mm 0.0 W/m2 CLR
03:07 -12.8 °C -14.9 °C 34591.4 hPa NW 32.8 km/h 32.8 km/h 77 % 0 mm 0.0 W/m2 CLR
03:12 -12.8 °C -14.9 °C 34591.4 hPa NNW 29.8 km/h 29.8 km/h 77 % 0 mm 0.0 W/m2 CLR
03:17 -12.8 °C -14.9 °C 34591.4 hPa NW 38.8 km/h 38.8 km/h 77 % 0 mm 0.0 W/m2 CLR
03:22 -12.8 °C -14.9 °C 34577.8 hPa WNW 32.8 km/h 32.8 km/h 77 % 0 mm 0.0 W/m2 CLR
03:27 -12.8 °C -14.9 °C 34577.8 hPa NW 38.8 km/h 38.8 km/h 77 % 0 mm 0.0 W/m2 CLR
03:32 -12.8 °C -14.9 °C 34577.8 hPa NW 35.7 km/h 35.7 km/h 77 % 0 mm 0.0 W/m2 CLR
03:37 -12.8 °C -14.9 °C 34577.8 hPa NW 25.9 km/h 25.9 km/h 77 % 0 mm 0.0 W/m2 CLR
03:42 -12.8 °C -14.9 °C 34577.8 hPa NW 29.8 km/h 29.8 km/h 77 % 0 mm 0.0 W/m2 CLR
03:47 -12.8 °C -14.9 °C 34577.8 hPa NW 26.9 km/h 26.9 km/h 77 % 0 mm 0.0 W/m2 CLR
03:52 -12.8 °C -14.9 °C 34567.7 hPa WNW 38.8 km/h 38.8 km/h 77 % 0 mm 0.0 W/m2 CLR
03:57 -12.8 °C -14.9 °C 34567.7 hPa WNW 32.8 km/h 32.8 km/h 77 % 0 mm 0.0 W/m2 CLR
04:02 -13.2 °C -15.2 °C 34567.7 hPa NW 35.7 km/h 35.7 km/h 77 % 0 mm 0.0 W/m2 CLR
04:07 -13.2 °C -15.2 °C 34567.7 hPa NW 41.7 km/h 41.7 km/h 77 % 0 mm 0.0 W/m2 CLR
04:12 -13.2 °C -15.2 °C 34567.7 hPa NW 38.8 km/h 38.8 km/h 77 % 0 mm 0.0 W/m2 CLR
04:17 -13.2 °C -15.2 °C 34567.7 hPa NW 29.8 km/h 29.8 km/h 77 % 0 mm 0.0 W/m2 CLR
04:22 -13.2 °C -15.2 °C 34567.7 hPa NW 33.6 km/h 33.6 km/h 77 % 0 mm 0.0 W/m2 CLR
04:27 -13.2 °C -15.2 °C 34554.1 hPa WNW 38.8 km/h 38.8 km/h 78 % 0 mm 0.0 W/m2 CLR
04:32 -13.2 °C -15.2 °C 34554.1 hPa NNW 44.7 km/h 44.7 km/h 78 % 0 mm 0.0 W/m2 CLR
04:37 -13.2 °C -15.2 °C 34554.1 hPa NW 26.9 km/h 26.9 km/h 78 % 0 mm 0.0 W/m2 CLR
04:42 -13.2 °C -15.2 °C 34554.1 hPa NW 29.8 km/h 29.8 km/h 78 % 0 mm 0.0 W/m2 CLR
04:47 -13.4 °C -15.4 °C 34554.1 hPa NW 29.8 km/h 29.8 km/h 78 % 0 mm 0.0 W/m2 CLR
04:52 -13.4 °C -15.4 °C 34554.1 hPa WNW 23.8 km/h 23.8 km/h 78 % 0 mm 0.0 W/m2 CLR
04:57 -13.4 °C -15.4 °C 34567.7 hPa WNW 20.9 km/h 20.9 km/h 78 % 0 mm 0.0 W/m2 CLR
05:02 -13.4 °C -15.4 °C 34567.7 hPa WNW 28.5 km/h 28.5 km/h 78 % 0 mm 0.0 W/m2 CLR
05:07 -13.4 °C -15.4 °C 34554.1 hPa WNW 23.8 km/h 23.8 km/h 78 % 0 mm 0.0 W/m2 CLR
05:12 -13.4 °C -15.4 °C 34567.7 hPa NW 28.5 km/h 28.5 km/h 78 % 0 mm 0.0 W/m2 CLR
05:17 -13.4 °C -15.4 °C 34567.7 hPa WNW 23.8 km/h 23.8 km/h 78 % 0 mm 0.0 W/m2 CLR
05:22 -13.4 °C -15.4 °C 34567.7 hPa NW 29.8 km/h 29.8 km/h 78 % 0 mm 0.0 W/m2 CLR
05:27 -13.8 °C -15.7 °C 34554.1 hPa WNW 23.8 km/h 23.8 km/h 78 % 0 mm 0.0 W/m2 CLR
05:32 -13.8 °C -15.7 °C 34567.7 hPa NW 26.9 km/h 26.9 km/h 78 % 0 mm 0.0 W/m2 CLR
05:37 -13.4 °C -15.4 °C 34554.1 hPa WNW 20.9 km/h 20.9 km/h 78 % 0 mm 0.0 W/m2 CLR
05:42 -13.4 °C -15.4 °C 34554.1 hPa NW 20.8 km/h 20.8 km/h 78 % 0 mm 0.0 W/m2 CLR
05:47 -13.8 °C -15.7 °C 34554.1 hPa NW 29.8 km/h 29.8 km/h 78 % 0 mm 0.0 W/m2 CLR
05:52 -13.4 °C -15.4 °C 34554.1 hPa WNW 26.9 km/h 26.9 km/h 78 % 0 mm 0.0 W/m2 CLR
05:57 -13.4 °C -15.4 °C 34567.7 hPa West 20.9 km/h 20.9 km/h 78 % 0 mm 0.0 W/m2 CLR
06:02 -13.4 °C -15.4 °C 34554.1 hPa WNW 23.8 km/h 23.8 km/h 78 % 0 mm 0.0 W/m2 CLR
06:07 -13.4 °C -15.4 °C 34554.1 hPa NW 20.9 km/h 20.9 km/h 78 % 0 mm 0.0 W/m2 CLR
06:12 -13.8 °C -15.7 °C 34567.7 hPa NW 29.8 km/h 29.8 km/h 78 % 0 mm 0.0 W/m2 CLR
06:17 -13.4 °C -15.4 °C 34554.1 hPa NW 26.9 km/h 26.9 km/h 78 % 0 mm 0.0 W/m2 CLR
06:22 -13.4 °C -15.4 °C 34554.1 hPa WNW 23.8 km/h 23.8 km/h 78 % 0 mm 0.0 W/m2 CLR
06:27 -13.4 °C -15.4 °C 34554.1 hPa WNW 25.9 km/h 25.9 km/h 78 % 0 mm 0.0 W/m2 CLR
06:32 -13.4 °C -15.4 °C 34554.1 hPa NW 20.9 km/h 20.9 km/h 78 % 0 mm 0.0 W/m2 CLR
06:37 -13.4 °C -15.4 °C 34567.7 hPa NW 31.1 km/h 31.1 km/h 78 % 0 mm 0.0 W/m2 CLR
06:42 -13.4 °C -15.4 °C 34554.1 hPa WNW 26.9 km/h 26.9 km/h 78 % 0 mm 0.0 W/m2 CLR
06:47 -13.4 °C -15.4 °C 34554.1 hPa NW 23.8 km/h 23.8 km/h 78 % 0 mm 0.0 W/m2 CLR
06:52 -13.4 °C -15.4 °C 34554.1 hPa WNW 29.8 km/h 29.8 km/h 78 % 0 mm 0.0 W/m2 CLR
06:57 -13.4 °C -15.4 °C 34554.1 hPa NW 26.9 km/h 26.9 km/h 78 % 0 mm 0.0 W/m2 CLR
07:02 -13.4 °C -15.4 °C 34554.1 hPa NW 26.9 km/h 26.9 km/h 78 % 0 mm 0.0 W/m2 CLR
07:07 -13.4 °C -15.4 °C 34554.1 hPa WNW 29.8 km/h 29.8 km/h 78 % 0 mm 0.0 W/m2 CLR
07:12 -13.4 °C -15.4 °C 34554.1 hPa West 29.8 km/h 29.8 km/h 78 % 0 mm 0.0 W/m2 CLR
07:17 -13.4 °C -15.4 °C 34554.1 hPa NW 29.8 km/h 29.8 km/h 78 % 0 mm 0.0 W/m2 CLR
07:22 -13.2 °C -15.2 °C 34567.7 hPa WNW 26.9 km/h 26.9 km/h 78 % 0 mm 0.0 W/m2 CLR
07:27 -13.2 °C -15.2 °C 34567.7 hPa WNW 18.2 km/h 18.2 km/h 78 % 0 mm 0.0 W/m2 CLR
07:32 -13.2 °C -15.2 °C 34567.7 hPa West 20.9 km/h 20.9 km/h 78 % 0 mm 0.0 W/m2 CLR
07:37 -13.2 °C -15.2 °C 34567.7 hPa NW 29.8 km/h 29.8 km/h 78 % 0 mm 0.0 W/m2 CLR
07:42 -13.2 °C -15.2 °C 34567.7 hPa NW 23.8 km/h 23.8 km/h 78 % 0 mm 0.0 W/m2 OVC
07:47 -13.2 °C -15.2 °C 34567.7 hPa WNW 23.8 km/h 23.8 km/h 78 % 0 mm 0.0 W/m2 OVC
07:52 -13.2 °C -15.2 °C 34567.7 hPa NW 20.9 km/h 20.9 km/h 78 % 0 mm 0.0 W/m2 OVC
07:57 -13.2 °C -15.2 °C 34577.8 hPa WNW 20.9 km/h 20.9 km/h 78 % 0 mm 0.0 W/m2 OVC
08:02 -13.2 °C -15.2 °C 34577.8 hPa NW 20.9 km/h 20.9 km/h 78 % 0 mm 5.0 W/m2 OVC
08:07 -13.2 °C -15.2 °C 34577.8 hPa WNW 23.8 km/h 23.8 km/h 77 % 0 mm 7.0 W/m2 BKN
08:12 -13.2 °C -15.2 °C 34567.7 hPa NW 17.9 km/h 17.9 km/h 77 % 0 mm 7.0 W/m2 BKN
08:17 -13.2 °C -15.2 °C 34577.8 hPa WNW 15 km/h 15 km/h 77 % 0 mm 16.0 W/m2 BKN
08:22 -13.2 °C -15.2 °C 34577.8 hPa WNW 15 km/h 15 km/h 77 % 0 mm 18.0 W/m2 BKN
08:27 -12.8 °C -14.9 °C 34577.8 hPa WNW 17.9 km/h 17.9 km/h 77 % 0 mm 21.0 W/m2 BKN
08:32 -12.8 °C -14.9 °C 34577.8 hPa NW 20.9 km/h 20.9 km/h 77 % 0 mm 26.0 W/m2 BKN
08:37 -12.8 °C -14.9 °C 34577.8 hPa WNW 23.3 km/h 23.3 km/h 77 % 0 mm 25.0 W/m2 BKN
08:42 -12.8 °C -14.9 °C 34577.8 hPa NW 23.8 km/h 23.8 km/h 77 % 0 mm 37.0 W/m2 BKN
08:47 -12.8 °C -15.1 °C 34577.8 hPa NW 20.9 km/h 20.9 km/h 76 % 0 mm 49.0 W/m2 SCT
08:52 -12.8 °C -15.1 °C 34577.8 hPa NW 26.9 km/h 26.9 km/h 76 % 0 mm 62.0 W/m2 SCT
08:57 -12.6 °C -14.8 °C 34577.8 hPa NW 23.8 km/h 23.8 km/h 76 % 0 mm 69.0 W/m2 SCT
09:02 -12.6 °C -14.8 °C 34567.7 hPa NW 15.6 km/h 15.6 km/h 76 % 0 mm 72.0 W/m2 FEW
09:07 -12.6 °C -14.8 °C 34577.8 hPa NW 29.8 km/h 29.8 km/h 76 % 0 mm 69.0 W/m2 FEW
09:12 -12.6 °C -14.8 °C 34577.8 hPa NW 29.8 km/h 29.8 km/h 76 % 0 mm 72.0 W/m2 FEW
09:17 -12.6 °C -14.9 °C 34577.8 hPa NNW 35.7 km/h 35.7 km/h 75 % 0 mm 70.0 W/m2 FEW
09:22 -12.6 °C -14.9 °C 34577.8 hPa NW 23.8 km/h 23.8 km/h 75 % 0 mm 69.0 W/m2 FEW
09:27 -12.6 °C -14.8 °C 34577.8 hPa NW 23.3 km/h 23.3 km/h 76 % 0 mm 84.0 W/m2 FEW
09:32 -12.6 °C -14.8 °C 34577.8 hPa WNW 29.8 km/h 29.8 km/h 76 % 0 mm 91.0 W/m2 FEW
09:37 -12.2 °C -14.6 °C 34577.8 hPa WNW 26.9 km/h 26.9 km/h 75 % 0 mm 97.0 W/m2 CLR
09:42 -12.2 °C -14.6 °C 34577.8 hPa WNW 23.8 km/h 23.8 km/h 75 % 0 mm 114.0 W/m2 CLR
09:47 -12.2 °C -14.6 °C 34577.8 hPa WNW 29.8 km/h 29.8 km/h 75 % 0 mm 121.0 W/m2 CLR
09:52 -12.2 °C -14.7 °C 34577.8 hPa WNW 23.8 km/h 23.8 km/h 74 % 0 mm 139.0 W/m2 CLR
09:57 -11.9 °C -14.4 °C 34577.8 hPa NW 38.8 km/h 38.8 km/h 74 % 0 mm 156.0 W/m2 CLR
10:02 -11.9 °C -14.4 °C 34577.8 hPa NW 29.8 km/h 29.8 km/h 74 % 0 mm 163.0 W/m2 CLR
10:07 -11.9 °C -14.3 °C 34567.7 hPa NW 29.8 km/h 29.8 km/h 75 % 0 mm 137.0 W/m2 CLR
10:12 -11.9 °C -14.3 °C 34567.7 hPa NNW 26.9 km/h 26.9 km/h 75 % 0 mm 146.0 W/m2 CLR
10:17 -11.9 °C -14.4 °C 34567.7 hPa NW 29.8 km/h 29.8 km/h 74 % 0 mm 181.0 W/m2 CLR
10:22 -11.9 °C -14.3 °C 34567.7 hPa NNW 26.9 km/h 26.9 km/h 75 % 0 mm 197.0 W/m2 CLR
10:27 -11.6 °C -14.1 °C 34567.7 hPa NW 41.7 km/h 41.7 km/h 74 % 0 mm 197.0 W/m2 CLR
10:32 -11.6 °C -14.1 °C 34567.7 hPa NW 29.8 km/h 29.8 km/h 74 % 0 mm 183.0 W/m2 CLR
10:37 -11.6 °C -14.2 °C 34567.7 hPa WNW 35.7 km/h 35.7 km/h 73 % 0 mm 220.0 W/m2 CLR
10:42 -11.6 °C -14.2 °C 34567.7 hPa NW 20.9 km/h 20.9 km/h 73 % 0 mm 190.0 W/m2 CLR
10:47 -11.6 °C -14.2 °C 34567.7 hPa NW 41.7 km/h 41.7 km/h 73 % 0 mm 185.0 W/m2 CLR
10:53 -11.6 °C -14.2 °C 34567.7 hPa NW 29.8 km/h 29.8 km/h 73 % 0 mm 179.0 W/m2 CLR
10:58 -11.6 °C -14.2 °C 34567.7 hPa NNW 44.7 km/h 44.7 km/h 73 % 0 mm 197.0 W/m2 CLR
11:03 -11.3 °C -13.9 °C 34567.7 hPa NNW 47.6 km/h 47.6 km/h 73 % 0 mm 206.0 W/m2 CLR
11:08 -11.3 °C -13.9 °C 34567.7 hPa NNW 53.6 km/h 53.6 km/h 73 % 0 mm 239.0 W/m2 CLR
11:13 -11.3 °C -13.9 °C 34567.7 hPa NW 32.8 km/h 32.8 km/h 73 % 0 mm 160.0 W/m2 CLR
11:18 -11.3 °C -14 °C 34567.7 hPa NNW 23.8 km/h 23.8 km/h 72 % 0 mm 190.0 W/m2 CLR
11:23 -11.3 °C -14 °C 34567.7 hPa NNW 20.9 km/h 24.8 km/h 72 % 0 mm 181.0 W/m2 CLR
11:28 -11.3 °C -13.9 °C 34554.1 hPa NW 26.9 km/h 26.9 km/h 73 % 0 mm 162.0 W/m2 CLR
11:33 -11.3 °C -13.9 °C 34554.1 hPa NNW 29.8 km/h 29.8 km/h 73 % 0 mm 151.0 W/m2 CLR
11:38 -11.3 °C -14 °C 34554.1 hPa NNW 26.9 km/h 26.9 km/h 72 % 0 mm 127.0 W/m2 CLR
11:43 -11.3 °C -14 °C 34567.7 hPa NNW 35.7 km/h 35.7 km/h 72 % 0 mm 158.0 W/m2 CLR
11:48 -11.3 °C -14 °C 34554.1 hPa NW 32.8 km/h 32.8 km/h 72 % 0 mm 211.0 W/m2 CLR
11:53 -11.3 °C -14 °C 34567.7 hPa NNW 33.6 km/h 33.6 km/h 72 % 0 mm 236.0 W/m2 CLR
11:58 -11 °C -13.7 °C 34554.1 hPa NNW 35.7 km/h 35.7 km/h 72 % 0 mm 221.0 W/m2 CLR
12:03 -11 °C -13.7 °C 34554.1 hPa NNW 38.8 km/h 38.8 km/h 72 % 0 mm 185.0 W/m2 CLR
12:08 -11 °C -13.8 °C 34554.1 hPa NW 29.8 km/h 29.8 km/h 71 % 0 mm 148.0 W/m2 CLR
12:13 -11 °C -13.7 °C 34554.1 hPa NW 26.9 km/h 26.9 km/h 72 % 0 mm 142.0 W/m2 CLR
12:18 -11 °C -13.7 °C 34554.1 hPa NW 29.8 km/h 29.8 km/h 72 % 0 mm 172.0 W/m2 CLR
12:23 -11 °C -13.8 °C 34554.1 hPa NNW 44.7 km/h 44.7 km/h 71 % 0 mm 162.0 W/m2 CLR
12:28 -11 °C -13.8 °C 34554.1 hPa NNW 26.9 km/h 26.9 km/h 71 % 0 mm 186.0 W/m2 CLR
12:33 -11 °C -13.8 °C 34554.1 hPa NNW 20.9 km/h 20.9 km/h 71 % 0 mm 220.0 W/m2 CLR
12:38 -11 °C -13.8 °C 34554.1 hPa NW 26.9 km/h 26.9 km/h 71 % 0 mm 113.0 W/m2 CLR
12:43 -11 °C -13.9 °C 34554.1 hPa NW 29.8 km/h 29.8 km/h 70 % 0 mm 128.0 W/m2 CLR
12:48 -11 °C -13.8 °C 34554.1 hPa NNW 29.8 km/h 29.8 km/h 71 % 0 mm 193.0 W/m2 CLR
12:53 -10.7 °C -13.7 °C 34544 hPa North 33.6 km/h 33.6 km/h 70 % 0 mm 232.0 W/m2 CLR
12:58 -10.7 °C -13.7 °C 34544 hPa NNW 29.8 km/h 29.8 km/h 70 % 0 mm 190.0 W/m2 CLR
13:03 -10.7 °C -13.7 °C 34544 hPa NNW 41.7 km/h 41.7 km/h 70 % 0 mm 216.0 W/m2 CLR
13:08 -10.7 °C -13.8 °C 34544 hPa NW 41.7 km/h 41.7 km/h 69 % 0 mm 193.0 W/m2 CLR
13:13 -10.7 °C -13.8 °C 34533.8 hPa NW 26.9 km/h 26.9 km/h 69 % 0 mm 172.0 W/m2 CLR
13:18 -10.7 °C -13.8 °C 34533.8 hPa NNW 35.7 km/h 35.7 km/h 69 % 0 mm 155.0 W/m2 CLR
13:23 -10.7 °C -13.8 °C 34533.8 hPa NW 29.8 km/h 29.8 km/h 69 % 0 mm 213.0 W/m2 CLR
13:28 -10.7 °C -13.8 °C 34533.8 hPa NNW 35.7 km/h 35.7 km/h 69 % 0 mm 211.0 W/m2 CLR
13:33 -10.4 °C -13.6 °C 34520.3 hPa North 29.8 km/h 29.8 km/h 68 % 0 mm 209.0 W/m2 CLR
13:38 -10.4 °C -13.6 °C 34520.3 hPa North 29.8 km/h 29.8 km/h 68 % 0 mm 178.0 W/m2 CLR
13:43 -10.7 °C -13.9 °C 34520.3 hPa North 29.8 km/h 29.8 km/h 68 % 0 mm 156.0 W/m2 CLR
13:48 -10.7 °C -13.9 °C 34520.3 hPa North 29.8 km/h 29.8 km/h 68 % 0 mm 202.0 W/m2 CLR
13:53 -10.4 °C -13.6 °C 34520.3 hPa NNW 3.1 km/h 3.1 km/h 68 % 0 mm 134.0 W/m2 CLR
13:58 -10.4 °C -13.6 °C 34520.3 hPa NNW 26.9 km/h 26.9 km/h 68 % 0 mm 156.0 W/m2 CLR
14:03 -10.4 °C -13.6 °C 34510.1 hPa NNW 32.8 km/h 32.8 km/h 68 % 0 mm 193.0 W/m2 CLR
14:08 -10.4 °C -13.6 °C 34510.1 hPa North 25.9 km/h 25.9 km/h 68 % 0 mm 171.0 W/m2 CLR
14:13 -10.4 °C -13.7 °C 34510.1 hPa North 29.8 km/h 29.8 km/h 67 % 0 mm 223.0 W/m2 CLR
14:18 -10.4 °C -13.7 °C 34510.1 hPa North 20.9 km/h 20.9 km/h 67 % 0 mm 362.0 W/m2 CLR
14:23 -10.1 °C -13.6 °C 34496.6 hPa NNW 26.9 km/h 26.9 km/h 66 % 0 mm 309.0 W/m2 CLR
14:28 -10.1 °C -13.6 °C 34510.1 hPa NNW 38.8 km/h 38.8 km/h 66 % 0 mm 223.0 W/m2 CLR
14:33 -10.1 °C -13.7 °C 34510.1 hPa North 26.9 km/h 26.9 km/h 65 % 0 mm 139.0 W/m2 CLR
14:38 -10.1 °C -13.7 °C 34496.6 hPa North 29.8 km/h 29.8 km/h 65 % 0 mm 179.0 W/m2 CLR
14:43 -10.1 °C -13.7 °C 34496.6 hPa North 32.8 km/h 32.8 km/h 65 % 0 mm 142.0 W/m2 CLR
14:48 -10.4 °C -13.8 °C 34496.6 hPa NNW 29.8 km/h 29.8 km/h 66 % 0 mm 102.0 W/m2 CLR
14:53 -10.4 °C -13.8 °C 34496.6 hPa NNW 29.8 km/h 29.8 km/h 66 % 0 mm 165.0 W/m2 CLR
14:58 -10.4 °C -13.9 °C 34486.4 hPa NW 32.8 km/h 32.8 km/h 65 % 0 mm 236.0 W/m2 CLR
15:03 -10.1 °C -13.6 °C 34486.4 hPa NNW 29.8 km/h 29.8 km/h 66 % 0 mm 332.0 W/m2 CLR
15:08 -10.1 °C -13.7 °C 34486.4 hPa NNW 38.8 km/h 38.8 km/h 65 % 0 mm 134.0 W/m2 CLR
15:13 -10.1 °C -13.7 °C 34486.4 hPa North 29.8 km/h 29.8 km/h 65 % 0 mm 132.0 W/m2 CLR
15:18 -10.1 °C -13.7 °C 34496.6 hPa North 29.8 km/h 29.8 km/h 65 % 0 mm 151.0 W/m2 CLR
15:23 -10.1 °C -13.7 °C 34496.6 hPa NNE 28.5 km/h 28.5 km/h 65 % 0 mm 155.0 W/m2 CLR
15:28 -10.1 °C -13.7 °C 34486.4 hPa North 31.1 km/h 31.1 km/h 65 % 0 mm 167.0 W/m2 CLR
15:33 -10.1 °C -13.7 °C 34486.4 hPa NNE 44.7 km/h 44.7 km/h 65 % 0 mm 125.0 W/m2 CLR
15:38 -10.1 °C -13.7 °C 34486.4 hPa North 38.8 km/h 38.8 km/h 65 % 0 mm 149.0 W/m2 CLR
15:43 -10.1 °C -13.7 °C 34486.4 hPa North 50.7 km/h 50.7 km/h 65 % 0 mm 135.0 W/m2 CLR
15:48 -10.4 °C -13.9 °C 34486.4 hPa North 44.7 km/h 44.7 km/h 65 % 0 mm 251.0 W/m2 CLR
15:53 -10.1 °C -13.7 °C 34486.4 hPa North 44.7 km/h 44.7 km/h 65 % 0 mm 197.0 W/m2 CLR
15:58 -10.1 °C -13.7 °C 34486.4 hPa North 38.8 km/h 38.8 km/h 65 % 0 mm 221.0 W/m2 CLR
16:03 -10.1 °C -13.8 °C 34486.4 hPa NNW 47.6 km/h 47.6 km/h 64 % 0 mm 169.0 W/m2 CLR
16:08 -10.1 °C -13.7 °C 34486.4 hPa NNW 32.8 km/h 32.8 km/h 65 % 0 mm 165.0 W/m2 CLR
16:13 -10.1 °C -13.7 °C 34486.4 hPa NNW 38.8 km/h 38.8 km/h 65 % 0 mm 171.0 W/m2 CLR
16:18 -10.1 °C -13.7 °C 34476.3 hPa NNW 47.6 km/h 47.6 km/h 65 % 0 mm 179.0 W/m2 CLR
16:23 -10.1 °C -13.8 °C 34486.4 hPa North 38.8 km/h 38.8 km/h 64 % 0 mm 165.0 W/m2 CLR
16:28 -10.1 °C -13.7 °C 34486.4 hPa North 47.6 km/h 47.6 km/h 65 % 0 mm 160.0 W/m2 CLR
16:33 -10.1 °C -13.7 °C 34476.3 hPa North 36.2 km/h 36.5 km/h 65 % 0 mm 123.0 W/m2 CLR
16:38 -10.1 °C -13.7 °C 34476.3 hPa NNW 38.8 km/h 38.8 km/h 65 % 0 mm 144.0 W/m2 CLR
16:43 -10.1 °C -13.6 °C 34476.3 hPa NNW 29.8 km/h 29.8 km/h 66 % 0 mm 135.0 W/m2 CLR
16:49 -10.1 °C -13.7 °C 34476.3 hPa NNW 35.7 km/h 35.7 km/h 65 % 0 mm 123.0 W/m2 CLR
16:54 -10.1 °C -13.7 °C 34476.3 hPa NNW 29.8 km/h 29.8 km/h 65 % 0 mm 127.0 W/m2 CLR
16:59 -10.1 °C -13.6 °C 34476.3 hPa NNW 41.7 km/h 41.7 km/h 66 % 0 mm 146.0 W/m2 CLR
17:04 -10.1 °C -13.7 °C 34476.3 hPa NNW 59.5 km/h 59.5 km/h 65 % 0 mm 128.0 W/m2 CLR
17:09 -10.1 °C -13.6 °C 34476.3 hPa North 50.7 km/h 50.7 km/h 66 % 0 mm 128.0 W/m2 CLR
17:14 -10.1 °C -13.6 °C 34476.3 hPa NNW 35.7 km/h 35.7 km/h 66 % 0 mm 135.0 W/m2 CLR
17:19 -10.1 °C -13.6 °C 34476.3 hPa NNW 35.7 km/h 35.7 km/h 66 % 0 mm 104.0 W/m2 CLR
17:24 -10.1 °C -13.6 °C 34476.3 hPa NW 35.7 km/h 35.7 km/h 66 % 0 mm 100.0 W/m2 CLR
17:29 -10.1 °C -13.6 °C 34476.3 hPa NNW 26.9 km/h 26.9 km/h 66 % 0 mm 95.0 W/m2 CLR
17:34 -10.1 °C -13.6 °C 34476.3 hPa North 46.7 km/h 46.7 km/h 66 % 0 mm 90.0 W/m2 CLR
17:39 -10.1 °C -13.6 °C 34476.3 hPa NW 41.7 km/h 41.7 km/h 66 % 0 mm 91.0 W/m2 CLR
17:44 -10.1 °C -13.6 °C 34476.3 hPa North 38.8 km/h 38.8 km/h 66 % 0 mm 69.0 W/m2 FEW
17:49 -10.4 °C -13.7 °C 34476.3 hPa NNW 41.7 km/h 41.7 km/h 67 % 0 mm 53.0 W/m2 SCT
17:54 -10.4 °C -13.7 °C 34476.3 hPa North 31.1 km/h 31.1 km/h 67 % 0 mm 42.0 W/m2 BKN
17:59 -10.4 °C -13.7 °C 34476.3 hPa NNE 41.7 km/h 41.7 km/h 67 % 0 mm 30.0 W/m2 BKN
18:04 -10.4 °C -13.6 °C 34476.3 hPa WNW 26.9 km/h 26.9 km/h 68 % 0 mm 23.0 W/m2 BKN
18:09 -10.4 °C -13.6 °C 34476.3 hPa NNW 29.8 km/h 29.8 km/h 68 % 0 mm 23.0 W/m2 BKN
18:14 -10.7 °C -13.9 °C 34486.4 hPa North 15 km/h 15 km/h 68 % 0 mm 21.0 W/m2 BKN
18:19 -10.7 °C -13.8 °C 34486.4 hPa North 29.8 km/h 29.8 km/h 69 % 0 mm 16.0 W/m2 BKN
18:24 -10.7 °C -13.8 °C 34486.4 hPa NW 32.8 km/h 32.8 km/h 69 % 0 mm 9.0 W/m2 BKN
18:29 -10.7 °C -13.8 °C 34486.4 hPa NNW 15 km/h 15 km/h 69 % 0 mm 7.0 W/m2 BKN
18:34 -10.7 °C -13.7 °C 34476.3 hPa NW 20.8 km/h 20.8 km/h 70 % 0 mm 7.0 W/m2 BKN
18:39 -10.7 °C -13.7 °C 34486.4 hPa NNW 26.9 km/h 26.9 km/h 70 % 0 mm 5.0 W/m2 OVC
18:44 -10.7 °C -13.7 °C 34486.4 hPa NNW 17.9 km/h 17.9 km/h 70 % 0 mm 0.0 W/m2 OVC
18:49 -10.7 °C -13.7 °C 34486.4 hPa NW 29.8 km/h 29.8 km/h 70 % 0 mm 0.0 W/m2 CLR
18:54 -10.7 °C -13.7 °C 34486.4 hPa NW 29.8 km/h 29.8 km/h 70 % 0 mm 0.0 W/m2 CLR
18:59 -10.7 °C -13.7 °C 34486.4 hPa NW 29.8 km/h 29.8 km/h 70 % 0 mm 0.0 W/m2 CLR
19:04 -10.7 °C -13.7 °C 34486.4 hPa NW 31.1 km/h 31.1 km/h 70 % 0 mm 0.0 W/m2 CLR
19:09 -10.7 °C -13.7 °C 34486.4 hPa NW 26.9 km/h 26.9 km/h 70 % 0 mm 0.0 W/m2 CLR
19:14 -10.7 °C -13.7 °C 34486.4 hPa NW 23.8 km/h 23.8 km/h 70 % 0 mm 0.0 W/m2 CLR
19:19 -11 °C -13.8 °C 34486.4 hPa NW 20.9 km/h 20.9 km/h 71 % 0 mm 0.0 W/m2 CLR
19:24 -11 °C -13.8 °C 34486.4 hPa NNW 50.7 km/h 50.7 km/h 71 % 0 mm 0.0 W/m2 CLR
19:29 -11 °C -13.7 °C 34486.4 hPa NNW 50.7 km/h 50.7 km/h 72 % 0 mm 0.0 W/m2 CLR
19:34 -11 °C -13.7 °C 34486.4 hPa NW 38.8 km/h 38.8 km/h 72 % 0 mm 0.0 W/m2 CLR
19:39 -11 °C -13.7 °C 34486.4 hPa NW 38.8 km/h 38.8 km/h 72 % 0 mm 0.0 W/m2 CLR
19:44 -11 °C -13.7 °C 34486.4 hPa NNW 35.7 km/h 35.7 km/h 72 % 0 mm 0.0 W/m2 CLR
19:49 -11 °C -13.7 °C 34486.4 hPa NNW 44.7 km/h 44.7 km/h 72 % 0 mm 0.0 W/m2 CLR
19:54 -11 °C -13.7 °C 34486.4 hPa NW 35.7 km/h 35.7 km/h 72 % 0 mm 0.0 W/m2 CLR
19:59 -11.3 °C -14 °C 34486.4 hPa NNW 26.9 km/h 26.9 km/h 72 % 0 mm 0.0 W/m2 CLR
20:04 -11.3 °C -14 °C 34486.4 hPa North 36.2 km/h 36.2 km/h 72 % 0 mm 0.0 W/m2 CLR
20:09 -11.3 °C -13.9 °C 34486.4 hPa NW 38.8 km/h 38.8 km/h 73 % 0 mm 0.0 W/m2 CLR
20:14 -11.3 °C -13.9 °C 34486.4 hPa NW 38.8 km/h 38.8 km/h 73 % 0 mm 0.0 W/m2 CLR
20:19 -11.3 °C -13.9 °C 34486.4 hPa NW 29.8 km/h 29.8 km/h 73 % 0 mm 0.0 W/m2 CLR
20:24 -11.3 °C -13.9 °C 34486.4 hPa NW 41.7 km/h 41.7 km/h 73 % 0 mm 0.0 W/m2 CLR
20:29 -11.3 °C -13.9 °C 34486.4 hPa WNW 41.7 km/h 41.7 km/h 73 % 0 mm 0.0 W/m2 CLR
20:34 -11.3 °C -13.9 °C 34486.4 hPa NW 29.8 km/h 29.8 km/h 73 % 0 mm 0.0 W/m2 CLR
20:39 -11.3 °C -13.9 °C 34486.4 hPa North 36.2 km/h 36.2 km/h 73 % 0 mm 0.0 W/m2 CLR
20:44 -11.3 °C -13.9 °C 34476.3 hPa NW 47.6 km/h 47.6 km/h 73 % 0 mm 0.0 W/m2 CLR
20:49 -11.3 °C -13.9 °C 34476.3 hPa WNW 28.5 km/h 28.5 km/h 73 % 0 mm 0.0 W/m2 CLR
20:54 -11.3 °C -13.9 °C 34476.3 hPa NNW 36.2 km/h 36.2 km/h 73 % 0 mm 0.0 W/m2 CLR
20:59 -11.3 °C -13.9 °C 34486.4 hPa NW 25.9 km/h 26.4 km/h 73 % 0 mm 0.0 W/m2 CLR
21:04 -11.3 °C -13.9 °C 34486.4 hPa NW 29.8 km/h 29.8 km/h 73 % 0 mm 0.0 W/m2 CLR
21:09 -11.3 °C -13.9 °C 34486.4 hPa WNW 29.8 km/h 29.8 km/h 73 % 0 mm 0.0 W/m2 CLR
21:14 -11.3 °C -13.9 °C 34486.4 hPa NW 29.8 km/h 29.8 km/h 73 % 0 mm 0.0 W/m2 CLR
21:19 -11.3 °C -13.9 °C 34486.4 hPa NNW 35.7 km/h 35.7 km/h 73 % 0 mm 0.0 W/m2 CLR
21:24 -11.3 °C -13.9 °C 34486.4 hPa NNW 32.8 km/h 32.8 km/h 73 % 0 mm 0.0 W/m2 CLR
21:29 -11.3 °C -13.9 °C 34486.4 hPa NW 33.6 km/h 33.6 km/h 73 % 0 mm 0.0 W/m2 CLR
21:34 -11.3 °C -13.9 °C 34486.4 hPa NW 26.9 km/h 26.9 km/h 73 % 0 mm 0.0 W/m2 CLR
21:40 -11.3 °C -13.9 °C 34486.4 hPa NW 29.8 km/h 29.8 km/h 73 % 0 mm 0.0 W/m2 CLR
21:45 -11.3 °C -13.8 °C 34486.4 hPa WNW 35.7 km/h 35.7 km/h 74 % 0 mm 0.0 W/m2 CLR
21:50 -11.3 °C -13.8 °C 34486.4 hPa NNW 26.9 km/h 26.9 km/h 74 % 0 mm 0.0 W/m2 CLR
21:55 -11.3 °C -13.8 °C 34486.4 hPa NW 35.7 km/h 35.7 km/h 74 % 0 mm 0.0 W/m2 CLR
22:00 -11.3 °C -13.8 °C 34486.4 hPa NW 35.7 km/h 35.7 km/h 74 % 0 mm 0.0 W/m2 CLR
22:05 -11.6 °C -14.1 °C 34476.3 hPa WNW 29.8 km/h 29.8 km/h 74 % 0 mm 0.0 W/m2 CLR
22:10 -11.6 °C -14.1 °C 34476.3 hPa NW 35.7 km/h 35.7 km/h 74 % 0 mm 0.0 W/m2 CLR
22:15 -11.6 °C -14.1 °C 34476.3 hPa NNW 32.8 km/h 32.8 km/h 74 % 0 mm 0.0 W/m2 CLR
22:20 -11.6 °C -14.1 °C 34476.3 hPa NW 38.8 km/h 38.8 km/h 74 % 0 mm 0.0 W/m2 CLR
22:25 -11.6 °C -14.1 °C 34476.3 hPa NNW 33.6 km/h 33.6 km/h 74 % 0 mm 0.0 W/m2 CLR
22:30 -11.6 °C -14.1 °C 34476.3 hPa NNW 36.2 km/h 36.2 km/h 74 % 0 mm 0.0 W/m2 CLR
22:35 -11.6 °C -14.1 °C 34476.3 hPa NW 31.1 km/h 31.1 km/h 74 % 0 mm 0.0 W/m2 CLR
22:40 -11.6 °C -14.1 °C 34476.3 hPa NW 25.9 km/h 25.9 km/h 74 % 0 mm 0.0 W/m2 CLR
22:45 -11.6 °C -14.1 °C 34476.3 hPa NW 29.8 km/h 29.8 km/h 74 % 0 mm 0.0 W/m2 CLR
22:50 -11.6 °C -14.1 °C 34476.3 hPa NW 31.1 km/h 31.1 km/h 74 % 0 mm 0.0 W/m2 CLR
22:55 -11.6 °C -14.1 °C 34476.3 hPa West 26.9 km/h 26.9 km/h 74 % 0 mm 0.0 W/m2 CLR
23:00 -11.6 °C -14.1 °C 34486.4 hPa NW 29.8 km/h 29.8 km/h 74 % 0 mm 0.0 W/m2 CLR
23:05 -11.6 °C -14.1 °C 34476.3 hPa WNW 29.8 km/h 29.8 km/h 74 % 0 mm 0.0 W/m2 CLR
23:10 -11.6 °C -14.1 °C 34476.3 hPa WNW 29.8 km/h 30.3 km/h 74 % 0 mm 0.0 W/m2 CLR
23:15 -11.6 °C -14.1 °C 34476.3 hPa NNW 28.5 km/h 28.5 km/h 74 % 0 mm 0.0 W/m2 CLR
23:20 -11.6 °C -14.1 °C 34476.3 hPa NW 32.8 km/h 32.8 km/h 74 % 0 mm 0.0 W/m2 CLR
23:25 -11.6 °C -14.1 °C 34476.3 hPa NNW 33.6 km/h 33.6 km/h 74 % 0 mm 0.0 W/m2 CLR
23:30 -11.6 °C -14 °C 34476.3 hPa NW 38.8 km/h 38.8 km/h 75 % 0 mm 0.0 W/m2 CLR
23:35 -11.6 °C -14 °C 34476.3 hPa NNW 35.7 km/h 35.7 km/h 75 % 0 mm 0.0 W/m2 CLR
23:40 -11.6 °C -14 °C 34476.3 hPa NW 26.9 km/h 26.9 km/h 75 % 0 mm 0.0 W/m2 CLR
23:45 -11.6 °C -14 °C 34476.3 hPa WNW 44.7 km/h 44.7 km/h 75 % 0 mm 0.0 W/m2 CLR
23:50 -11.6 °C -14 °C 34462.7 hPa NW 38.8 km/h 38.8 km/h 75 % 0 mm 0.0 W/m2 CLR
23:55 -11.6 °C -14 °C 34476.3 hPa NW 41.7 km/h 41.7 km/h 75 % 0 mm 0.0 W/m2 CLR
Lo Temps de Massalio
Compliments of Weather Underground - 1.25 mb